createdAt,value
2023-02-08T00:01:16.817Z,-3.99
2023-02-08T00:03:45.704Z,-3.98
2023-02-08T00:06:15.400Z,-4.02
2023-02-08T00:08:44.389Z,-4.06
2023-02-08T00:11:12.673Z,-4.06
2023-02-08T00:13:42.845Z,-4.05
2023-02-08T00:16:12.368Z,-4.09
2023-02-08T00:18:42.702Z,-4.08
2023-02-08T00:21:12.275Z,-4.09
2023-02-08T00:23:40.532Z,-4.17
2023-02-08T00:26:08.929Z,-4.13
2023-02-08T00:28:37.083Z,-4.16
2023-02-08T00:31:06.016Z,-4.23
2023-02-08T00:33:34.285Z,-4.25
2023-02-08T00:36:05.958Z,-4.25
2023-02-08T00:38:34.449Z,-4.31
2023-02-08T00:41:02.581Z,-4.30
2023-02-08T00:43:30.563Z,-4.34
2023-02-08T00:46:00.100Z,-4.34
2023-02-08T00:48:28.804Z,-4.37
2023-02-08T00:51:06.231Z,-4.39
2023-02-08T00:53:37.234Z,-4.39
2023-02-08T00:56:07.521Z,-4.45
2023-02-08T00:58:36.073Z,-4.46
2023-02-08T01:01:05.876Z,-4.48
2023-02-08T01:03:35.401Z,-4.48
2023-02-08T01:06:06.987Z,-4.49
2023-02-08T01:08:35.346Z,-4.53
2023-02-08T01:11:05.155Z,-4.58
2023-02-08T01:13:33.399Z,-4.54
2023-02-08T01:16:07.900Z,-4.56
2023-02-08T01:18:36.048Z,-4.64
2023-02-08T01:21:10.431Z,-4.62
2023-02-08T01:23:40.805Z,-4.62
2023-02-08T01:26:10.079Z,-4.59
2023-02-08T01:28:39.928Z,-4.65
2023-02-08T01:31:09.015Z,-4.67
2023-02-08T01:33:37.636Z,-4.65
2023-02-08T01:36:07.198Z,-4.68
2023-02-08T01:38:37.774Z,-4.74
2023-02-08T01:41:07.694Z,-4.77
2023-02-08T01:43:56.579Z,-4.79
2023-02-08T01:46:25.985Z,-4.82
2023-02-08T01:48:55.415Z,-4.84
2023-02-08T01:51:26.915Z,-4.82
2023-02-08T01:53:57.188Z,-4.94
2023-02-08T01:56:33.274Z,-4.89
2023-02-08T01:59:04.727Z,-4.93
2023-02-08T02:01:35.006Z,-4.94
2023-02-08T02:04:04.543Z,-4.92
2023-02-08T02:06:36.343Z,-5.00
2023-02-08T02:09:11.453Z,-4.97
2023-02-08T02:14:48.549Z,-5.00
2023-02-08T02:17:21.535Z,-5.03
2023-02-08T02:19:57.425Z,-5.00
2023-02-08T02:22:46.706Z,-5.07
2023-02-08T02:25:38.404Z,-5.08
2023-02-08T02:28:53.917Z,-5.01
2023-02-08T02:32:00.690Z,-5.07
2023-02-08T02:34:38.727Z,-4.99
2023-02-08T02:37:17.003Z,-5.03
2023-02-08T02:39:58.391Z,-4.89
2023-02-08T02:42:53.638Z,-4.92
2023-02-08T02:45:32.367Z,-4.99
2023-02-08T02:48:07.630Z,-5.04
2023-02-08T02:50:42.599Z,-5.08
2023-02-08T02:53:19.635Z,-5.08
2023-02-08T02:55:52.400Z,-5.13
2023-02-08T02:58:24.926Z,-5.10
2023-02-08T03:00:54.140Z,-5.15
2023-02-08T03:03:26.164Z,-5.19
2023-02-08T03:06:00.942Z,-5.19
2023-02-08T03:08:50.052Z,-5.23
2023-02-08T03:11:22.893Z,-5.23
2023-02-08T03:14:20.603Z,-5.21
2023-02-08T03:17:07.745Z,-5.21
2023-02-08T03:19:44.855Z,-5.27
2023-02-08T03:22:18.827Z,-5.25
2023-02-08T03:24:56.359Z,-5.40
2023-02-08T03:27:34.257Z,-5.33
2023-02-08T03:30:07.694Z,-5.41
2023-02-08T03:32:42.999Z,-5.41
2023-02-08T03:35:17.949Z,-5.38
2023-02-08T03:37:51.363Z,-5.39
2023-02-08T03:40:24.004Z,-5.37
2023-02-08T03:42:55.376Z,-5.44
2023-02-08T03:45:26.384Z,-5.44
2023-02-08T03:47:59.633Z,-5.45
2023-02-08T03:50:32.556Z,-5.42
2023-02-08T03:53:01.550Z,-5.44
2023-02-08T03:55:33.839Z,-5.45
2023-02-08T03:58:10.341Z,-5.46
2023-02-08T04:00:43.898Z,-5.53
2023-02-08T04:03:17.018Z,-5.50
2023-02-08T04:05:47.664Z,-5.51
2023-02-08T04:08:16.014Z,-5.49
2023-02-08T04:10:43.895Z,-5.56
2023-02-08T04:13:12.803Z,-5.59
2023-02-08T04:15:44.789Z,-5.62
2023-02-08T04:18:12.760Z,-5.60
2023-02-08T04:20:41.056Z,-5.57
2023-02-08T04:23:11.648Z,-5.54
2023-02-08T04:25:40.081Z,-5.53
2023-02-08T04:28:07.880Z,-5.55
2023-02-08T04:30:36.294Z,-5.56
2023-02-08T04:33:04.886Z,-5.56
2023-02-08T04:35:32.810Z,-5.54
2023-02-08T04:38:01.924Z,-5.50
2023-02-08T04:40:31.917Z,-5.52
2023-02-08T04:43:02.425Z,-5.54
2023-02-08T04:45:32.169Z,-5.59
2023-02-08T04:48:01.549Z,-5.62
2023-02-08T04:50:30.622Z,-5.63
2023-02-08T04:52:59.568Z,-5.67
2023-02-08T04:55:28.431Z,-5.62
2023-02-08T04:57:57.827Z,-5.60
2023-02-08T05:00:25.696Z,-5.66
2023-02-08T05:02:54.464Z,-5.64
2023-02-08T05:05:23.444Z,-5.63
2023-02-08T05:07:51.737Z,-5.61
2023-02-08T05:10:19.919Z,-5.67
2023-02-08T05:12:47.715Z,-5.70
2023-02-08T05:15:18.765Z,-5.68
2023-02-08T05:17:46.774Z,-5.67
2023-02-08T05:20:15.668Z,-5.68
2023-02-08T05:22:43.959Z,-5.65
2023-02-08T05:25:12.125Z,-5.64
2023-02-08T05:27:40.200Z,-5.70
2023-02-08T05:30:08.991Z,-5.69
2023-02-08T05:32:39.734Z,-5.67
2023-02-08T05:35:10.025Z,-5.71
2023-02-08T05:37:38.642Z,-5.71
2023-02-08T05:40:09.080Z,-5.70
2023-02-08T05:42:37.644Z,-5.70
2023-02-08T05:45:07.320Z,-5.77
2023-02-08T05:47:35.839Z,-5.76
2023-02-08T05:50:05.797Z,-5.71
2023-02-08T05:52:33.683Z,-5.72
2023-02-08T05:55:01.592Z,-5.76
2023-02-08T05:57:31.384Z,-5.72
2023-02-08T05:59:59.790Z,-5.69
2023-02-08T06:02:27.719Z,-5.64
2023-02-08T06:04:56.576Z,-5.70
2023-02-08T06:07:26.433Z,-5.71
2023-02-08T06:09:54.268Z,-5.75
2023-02-08T06:12:22.080Z,-5.66
2023-02-08T06:14:49.958Z,-5.63
2023-02-08T06:17:18.087Z,-5.65
2023-02-08T06:19:47.015Z,-5.74
2023-02-08T06:22:16.593Z,-5.73
2023-02-08T06:24:45.785Z,-5.78
2023-02-08T06:27:14.477Z,-5.84
2023-02-08T06:29:42.316Z,-5.85
2023-02-08T06:32:11.333Z,-5.90
2023-02-08T06:34:40.117Z,-5.90
2023-02-08T06:37:10.400Z,-5.88
2023-02-08T06:39:39.166Z,-5.98
2023-02-08T06:42:08.995Z,-5.91
2023-02-08T06:44:40.462Z,-6.00
2023-02-08T06:47:12.419Z,-5.94
2023-02-08T06:49:41.677Z,-5.98
2023-02-08T06:52:10.756Z,-5.97
2023-02-08T06:54:39.700Z,-5.94
2023-02-08T06:57:09.094Z,-5.94
2023-02-08T06:59:37.259Z,-5.99
2023-02-08T07:02:05.292Z,-6.01
2023-02-08T07:04:33.944Z,-6.01
2023-02-08T07:07:03.021Z,-5.96
2023-02-08T07:09:31.826Z,-6.02
2023-02-08T07:11:59.917Z,-5.93
2023-02-08T07:14:29.159Z,-5.97
2023-02-08T07:16:58.036Z,-5.81
2023-02-08T07:19:27.437Z,-5.83
2023-02-08T07:21:58.023Z,-5.78
2023-02-08T07:24:25.856Z,-5.73
2023-02-08T07:26:54.138Z,-5.62
2023-02-08T07:29:22.611Z,-5.55
2023-02-08T07:31:52.785Z,-5.45
2023-02-08T07:34:21.940Z,-5.31
2023-02-08T07:36:49.853Z,-5.15
2023-02-08T07:39:17.749Z,-5.06
2023-02-08T07:41:47.117Z,-4.94
2023-02-08T07:44:15.261Z,-4.79
2023-02-08T07:46:43.383Z,-4.76
2023-02-08T07:49:12.946Z,-4.65
2023-02-08T07:51:41.776Z,-4.58
2023-02-08T07:54:09.636Z,-4.47
2023-02-08T07:56:37.521Z,-4.39
2023-02-08T07:59:05.397Z,-4.31
2023-02-08T08:01:33.723Z,-4.22
2023-02-08T08:04:02.603Z,-4.15
2023-02-08T08:06:31.900Z,-4.06
2023-02-08T08:08:59.808Z,-3.96
2023-02-08T08:11:27.741Z,-3.87
2023-02-08T08:13:55.936Z,-3.80
2023-02-08T08:16:25.287Z,-3.77
2023-02-08T08:18:53.193Z,-3.68
2023-02-08T08:21:21.148Z,-3.61
2023-02-08T08:23:52.035Z,-3.53
2023-02-08T08:26:22.572Z,-3.47
2023-02-08T08:28:52.723Z,-3.40
2023-02-08T08:31:22.883Z,-3.33
2023-02-08T08:33:51.712Z,-3.26
2023-02-08T08:36:20.296Z,-3.23
2023-02-08T08:38:50.404Z,-3.16
2023-02-08T08:41:18.994Z,-3.10
2023-02-08T08:43:47.359Z,-3.05
2023-02-08T08:46:16.632Z,-2.99
2023-02-08T08:48:45.073Z,-2.94
2023-02-08T08:51:14.155Z,-2.92
2023-02-08T08:53:42.612Z,-2.84
2023-02-08T08:56:12.116Z,-2.80
2023-02-08T08:58:39.979Z,-2.71
2023-02-08T09:01:07.835Z,-2.68
2023-02-08T09:03:36.111Z,-2.62
2023-02-08T09:06:04.082Z,-2.53
2023-02-08T09:08:33.410Z,-2.50
2023-02-08T09:11:06.205Z,-2.42
2023-02-08T09:13:36.965Z,-2.37
2023-02-08T09:16:09.715Z,-2.34
2023-02-08T09:18:38.048Z,-2.27
2023-02-08T09:21:11.110Z,-2.24
2023-02-08T09:23:39.745Z,-2.16
2023-02-08T09:26:10.929Z,-2.08
2023-02-08T09:28:40.721Z,-2.08
2023-02-08T09:31:09.230Z,-2.03
2023-02-08T09:33:37.142Z,-1.98
2023-02-08T09:36:05.348Z,-1.93
2023-02-08T09:38:34.918Z,-1.90
2023-02-08T09:41:20.496Z,-1.86
2023-02-08T09:44:02.135Z,-1.84
2023-02-08T09:46:35.908Z,-1.75
2023-02-08T09:49:08.449Z,-1.71
2023-02-08T09:51:41.032Z,-1.66
2023-02-08T09:54:16.453Z,-1.65
2023-02-08T09:56:46.160Z,-1.60
2023-02-08T09:59:21.452Z,-1.54
2023-02-08T10:01:52.582Z,-1.46
2023-02-08T10:04:29.662Z,-1.44
2023-02-08T10:06:58.328Z,-1.40
2023-02-08T10:09:27.982Z,-1.38
2023-02-08T10:12:08.083Z,-1.30
2023-02-08T10:14:57.043Z,-1.29
2023-02-08T10:17:43.538Z,-1.21
2023-02-08T10:20:25.194Z,-1.22
2023-02-08T10:23:04.062Z,-1.21
2023-02-08T10:25:45.345Z,-1.15
2023-02-08T10:28:31.421Z,-1.12
2023-02-08T10:31:09.891Z,-1.02
2023-02-08T10:33:47.900Z,-0.96
2023-02-08T10:36:21.975Z,-0.90
2023-02-08T10:38:54.512Z,-0.86
2023-02-08T10:41:27.120Z,-0.83
2023-02-08T10:44:06.011Z,-0.75
2023-02-08T10:46:41.956Z,-0.71
2023-02-08T10:49:17.911Z,-0.68
2023-02-08T10:51:47.241Z,-0.61
2023-02-08T10:54:17.762Z,-0.63
2023-02-08T10:56:49.200Z,-0.56
2023-02-08T10:59:21.117Z,-0.50
2023-02-08T11:01:51.914Z,-0.47
2023-02-08T11:04:20.688Z,-0.46
2023-02-08T11:06:51.771Z,-0.35
2023-02-08T11:09:26.578Z,-0.30
2023-02-08T11:11:55.586Z,-0.22
2023-02-08T11:14:40.999Z,-0.18
2023-02-08T11:17:26.958Z,-0.13
2023-02-08T11:19:55.175Z,-0.12
2023-02-08T11:22:25.632Z,-0.05
2023-02-08T11:25:00.125Z,-0.04
2023-02-08T11:27:35.479Z,-0.01
2023-02-08T11:30:23.308Z,0.11
2023-02-08T11:33:22.778Z,0.10
2023-02-08T11:36:01.809Z,0.18
2023-02-08T11:38:32.664Z,0.16
2023-02-08T11:41:05.548Z,0.17
2023-02-08T11:43:36.570Z,0.20
2023-02-08T11:46:08.011Z,0.25
2023-02-08T11:48:43.526Z,0.24
2023-02-08T11:51:15.597Z,0.31
2023-02-08T11:53:49.152Z,0.38
2023-02-08T11:56:20.890Z,0.39
2023-02-08T11:59:03.102Z,0.48
2023-02-08T12:01:34.552Z,0.47
2023-02-08T12:04:06.559Z,0.50
2023-02-08T12:07:03.266Z,0.53
2023-02-08T12:09:49.652Z,0.67
2023-02-08T12:12:29.100Z,0.65
2023-02-08T12:15:07.157Z,0.64
2023-02-08T12:17:56.173Z,0.63
2023-02-08T12:20:42.513Z,0.67
2023-02-08T12:23:45.744Z,0.71
2023-02-08T12:26:21.094Z,0.76
2023-02-08T12:29:10.974Z,0.74
2023-02-08T12:31:58.402Z,0.77
2023-02-08T12:34:40.702Z,0.79
2023-02-08T12:37:42.510Z,0.83
2023-02-08T12:40:41.813Z,0.84
2023-02-08T12:43:21.521Z,0.89
2023-02-08T12:46:09.339Z,0.91
2023-02-08T12:49:06.539Z,0.93
2023-02-08T12:51:44.162Z,0.93
2023-02-08T12:54:17.396Z,0.96
2023-02-08T12:57:01.581Z,0.94
2023-02-08T12:59:35.117Z,0.98
2023-02-08T13:02:16.963Z,0.96
2023-02-08T13:04:48.688Z,1.00
2023-02-08T13:07:22.137Z,1.01
2023-02-08T13:10:02.546Z,1.02
2023-02-08T13:12:33.724Z,1.04
2023-02-08T13:15:11.864Z,1.04
2023-02-08T13:17:49.430Z,1.08
2023-02-08T13:20:31.010Z,1.13
2023-02-08T13:23:03.621Z,1.08
2023-02-08T13:25:37.154Z,1.13
2023-02-08T13:28:09.100Z,1.12
2023-02-08T13:30:40.283Z,1.12
2023-02-08T13:33:18.106Z,1.13
2023-02-08T13:35:51.484Z,1.15
2023-02-08T13:38:28.387Z,1.21
2023-02-08T13:41:07.174Z,1.22
2023-02-08T13:43:42.091Z,1.23
2023-02-08T13:46:12.069Z,1.20
2023-02-08T13:48:48.023Z,1.23
2023-02-08T13:52:02.303Z,1.27
2023-02-08T13:54:30.322Z,1.26
2023-02-08T13:57:01.327Z,1.25
2023-02-08T13:59:35.622Z,1.26
2023-02-08T14:02:22.798Z,1.26
2023-02-08T14:04:53.997Z,1.32
2023-02-08T14:07:41.669Z,1.30
2023-02-08T14:10:23.984Z,1.31
2023-02-08T14:12:59.956Z,1.35
2023-02-08T14:15:33.820Z,1.32
2023-02-08T14:18:02.936Z,1.31
2023-02-08T14:20:39.325Z,1.33
2023-02-08T14:23:21.412Z,1.39
2023-02-08T14:25:51.874Z,1.38
2023-02-08T14:28:31.983Z,1.42
2023-02-08T14:31:02.435Z,1.46
2023-02-08T14:33:35.101Z,1.41
2023-02-08T14:36:06.239Z,1.39
2023-02-08T14:39:08.590Z,1.40
2023-02-08T14:41:51.582Z,1.38
2023-02-08T14:44:55.969Z,1.35
2023-02-08T14:47:54.920Z,1.34
2023-02-08T14:50:30.176Z,1.35
2023-02-08T14:53:04.213Z,1.35
2023-02-08T14:55:38.466Z,1.34
2023-02-08T14:58:08.557Z,1.33
2023-02-08T15:00:38.983Z,1.34
2023-02-08T15:03:15.963Z,1.34
2023-02-08T15:05:57.859Z,1.34
2023-02-08T15:08:26.074Z,1.33
2023-02-08T15:10:53.957Z,1.30
2023-02-08T15:13:24.827Z,1.29
2023-02-08T15:15:55.958Z,1.29
2023-02-08T15:18:29.436Z,1.27
2023-02-08T15:21:04.768Z,1.29
2023-02-08T15:23:32.893Z,1.21
2023-02-08T15:26:05.228Z,1.18
2023-02-08T15:28:37.791Z,1.16
2023-02-08T15:31:09.315Z,1.11
2023-02-08T15:33:42.530Z,1.09
2023-02-08T15:36:23.335Z,1.04
2023-02-08T15:38:51.261Z,1.05
2023-02-08T15:41:26.231Z,1.04
2023-02-08T15:44:02.209Z,1.02
2023-02-08T15:46:31.788Z,0.98
2023-02-08T15:49:01.301Z,0.94
2023-02-08T15:51:30.579Z,0.93
2023-02-08T15:53:58.651Z,0.83
2023-02-08T15:56:37.545Z,0.82
2023-02-08T15:59:07.943Z,0.84
2023-02-08T16:01:37.012Z,0.78
2023-02-08T16:04:08.412Z,0.75
2023-02-08T16:06:40.114Z,0.67
2023-02-08T16:09:08.310Z,0.63
2023-02-08T16:11:37.748Z,0.60
2023-02-08T16:14:07.819Z,0.60
2023-02-08T16:16:42.646Z,0.52
2023-02-08T16:19:24.190Z,0.47
2023-02-08T16:21:53.394Z,0.41
2023-02-08T16:24:25.115Z,0.41
2023-02-08T16:26:58.313Z,0.30
2023-02-08T16:29:30.338Z,0.29
2023-02-08T16:32:07.913Z,0.28
2023-02-08T16:34:39.793Z,0.24
2023-02-08T16:37:19.690Z,0.19
2023-02-08T16:39:56.052Z,0.12
2023-02-08T16:42:29.924Z,0.08
2023-02-08T16:45:13.923Z,0.07
2023-02-08T16:47:43.177Z,0.07
2023-02-08T16:50:16.109Z,0.00
2023-02-08T16:52:44.187Z,-0.02
2023-02-08T16:55:23.192Z,-0.06
2023-02-08T16:57:53.085Z,-0.07
2023-02-08T17:00:25.189Z,-0.09
2023-02-08T17:02:53.499Z,-0.16
2023-02-08T17:05:25.039Z,-0.18
2023-02-08T17:07:52.948Z,-0.22
2023-02-08T17:10:26.482Z,-0.23
2023-02-08T17:13:07.036Z,-0.26
2023-02-08T17:15:44.575Z,-0.29
2023-02-08T17:18:14.931Z,-0.32
2023-02-08T17:20:44.979Z,-0.34
2023-02-08T17:23:15.686Z,-0.42
2023-02-08T17:25:44.470Z,-0.43
2023-02-08T17:28:17.484Z,-0.51
2023-02-08T17:30:48.657Z,-0.47
2023-02-08T17:33:18.909Z,-0.53
2023-02-08T17:35:50.592Z,-0.56
2023-02-08T17:38:19.446Z,-0.57
2023-02-08T17:40:48.304Z,-0.66
2023-02-08T17:43:18.068Z,-0.67
2023-02-08T17:45:46.687Z,-0.72
2023-02-08T17:48:15.020Z,-0.71
2023-02-08T17:50:47.795Z,-0.73
2023-02-08T17:53:17.700Z,-0.77
2023-02-08T17:55:47.780Z,-0.78
2023-02-08T17:58:15.675Z,-0.83
2023-02-08T18:00:43.500Z,-0.82
2023-02-08T18:03:12.070Z,-0.88
2023-02-08T18:05:40.042Z,-0.86
2023-02-08T18:08:07.897Z,-0.93
2023-02-08T18:10:37.097Z,-0.93
2023-02-08T18:13:05.129Z,-0.93
2023-02-08T18:15:34.932Z,-0.91
2023-02-08T18:18:03.273Z,-0.97
2023-02-08T18:20:31.830Z,-1.01
2023-02-08T18:22:59.708Z,-1.00
2023-02-08T18:25:27.703Z,-1.02
2023-02-08T18:27:57.140Z,-1.06
2023-02-08T18:30:26.182Z,-1.07
2023-02-08T18:32:54.015Z,-1.11
2023-02-08T18:35:22.466Z,-1.13
2023-02-08T18:37:50.409Z,-1.15
2023-02-08T18:40:19.232Z,-1.19
2023-02-08T18:42:47.097Z,-1.20
2023-02-08T18:45:16.394Z,-1.21
2023-02-08T18:47:44.334Z,-1.23
2023-02-08T18:50:12.435Z,-1.26
2023-02-08T18:52:40.255Z,-1.30
2023-02-08T18:55:08.545Z,-1.35
2023-02-08T18:57:38.903Z,-1.34
2023-02-08T19:00:07.687Z,-1.37
2023-02-08T19:02:39.352Z,-1.41
2023-02-08T19:05:07.943Z,-1.37
2023-02-08T19:07:36.331Z,-1.33
2023-02-08T19:10:04.811Z,-1.41
2023-02-08T19:12:32.616Z,-1.41
2023-02-08T19:15:00.476Z,-1.48
2023-02-08T19:17:28.489Z,-1.52
2023-02-08T19:19:59.576Z,-1.52
2023-02-08T19:22:27.422Z,-1.58
2023-02-08T19:24:55.870Z,-1.57
2023-02-08T19:27:24.948Z,-1.54
2023-02-08T19:29:56.249Z,-1.55
2023-02-08T19:32:24.990Z,-1.63
2023-02-08T19:34:52.859Z,-1.59
2023-02-08T19:37:22.090Z,-1.58
2023-02-08T19:39:51.273Z,-1.64
2023-02-08T19:42:19.701Z,-1.60
2023-02-08T19:44:48.225Z,-1.61
2023-02-08T19:47:16.872Z,-1.65
2023-02-08T19:49:44.893Z,-1.66
2023-02-08T19:52:16.949Z,-1.70
2023-02-08T19:54:47.048Z,-1.71
2023-02-08T19:57:16.092Z,-1.78
2023-02-08T19:59:44.631Z,-1.80
2023-02-08T20:02:13.576Z,-1.78
2023-02-08T20:04:42.291Z,-1.83
2023-02-08T20:07:10.346Z,-1.86
2023-02-08T20:09:38.545Z,-1.87
2023-02-08T20:12:09.228Z,-1.86
2023-02-08T20:14:38.118Z,-1.89
2023-02-08T20:17:05.912Z,-1.93
2023-02-08T20:19:37.020Z,-1.95
2023-02-08T20:22:06.085Z,-1.94
2023-02-08T20:24:34.623Z,-1.95
2023-02-08T20:27:02.487Z,-1.97
2023-02-08T20:29:31.723Z,-1.99
2023-02-08T20:31:59.621Z,-2.03
2023-02-08T20:34:27.725Z,-2.06
2023-02-08T20:37:11.887Z,-2.06
2023-02-08T20:39:41.545Z,-2.07
2023-02-08T20:42:10.716Z,-2.09
2023-02-08T20:44:41.337Z,-2.12
2023-02-08T20:47:10.731Z,-2.13
2023-02-08T20:49:40.212Z,-2.15
2023-02-08T20:52:08.733Z,-2.23
2023-02-08T20:54:37.069Z,-2.21
2023-02-08T20:57:05.450Z,-2.27
2023-02-08T20:59:33.795Z,-2.27
2023-02-08T21:02:04.935Z,-2.34
2023-02-08T21:04:32.882Z,-2.28
2023-02-08T21:07:00.797Z,-2.30
2023-02-08T21:09:29.036Z,-2.34
2023-02-08T21:11:56.849Z,-2.38
2023-02-08T21:14:25.355Z,-2.40
2023-02-08T21:16:58.901Z,-2.45
2023-02-08T21:19:31.146Z,-2.52
2023-02-08T21:22:02.022Z,-2.55
2023-02-08T21:24:30.907Z,-2.59
2023-02-08T21:26:58.959Z,-2.61
2023-02-08T21:29:29.341Z,-2.64
2023-02-08T21:31:57.817Z,-2.70
2023-02-08T21:34:26.729Z,-2.70
2023-02-08T21:36:58.612Z,-2.68
2023-02-08T21:39:28.415Z,-2.77
2023-02-08T21:41:56.368Z,-2.75
2023-02-08T21:44:24.284Z,-2.83
2023-02-08T21:46:52.946Z,-2.90
2023-02-08T21:49:39.414Z,-2.89
2023-02-08T21:52:26.127Z,-2.96
2023-02-08T21:54:54.064Z,-2.99
2023-02-08T21:57:25.020Z,-3.05
2023-02-08T21:59:55.769Z,-3.05
2023-02-08T22:02:25.892Z,-3.10
2023-02-08T22:04:55.142Z,-3.07
2023-02-08T22:07:24.509Z,-3.11
2023-02-08T22:09:54.998Z,-3.14
2023-02-08T22:12:24.631Z,-3.14
2023-02-08T22:14:52.517Z,-3.19
2023-02-08T22:17:21.033Z,-3.24
2023-02-08T22:19:48.865Z,-3.30
2023-02-08T22:22:18.348Z,-3.29
2023-02-08T22:24:50.120Z,-3.32
2023-02-08T22:27:18.062Z,-3.38
2023-02-08T22:29:46.692Z,-3.33
2023-02-08T22:32:17.033Z,-3.36
2023-02-08T22:34:46.440Z,-3.37
2023-02-08T22:37:16.690Z,-3.40
2023-02-08T22:39:46.229Z,-3.40
2023-02-08T22:42:16.649Z,-3.43
2023-02-08T22:44:46.726Z,-3.38
2023-02-08T22:47:14.972Z,-3.47
2023-02-08T22:49:44.368Z,-3.48
2023-02-08T22:52:12.375Z,-3.51
2023-02-08T22:54:41.452Z,-3.56
2023-02-08T22:57:11.266Z,-3.61
2023-02-08T22:59:41.200Z,-3.65
2023-02-08T23:02:09.460Z,-3.70
2023-02-08T23:04:38.194Z,-3.78
2023-02-08T23:07:06.229Z,-3.81
2023-02-08T23:09:34.167Z,-3.86
2023-02-08T23:12:02.033Z,-3.94
2023-02-08T23:14:29.917Z,-3.97
2023-02-08T23:16:59.185Z,-3.96
2023-02-08T23:19:27.167Z,-4.00
2023-02-08T23:21:55.104Z,-3.99
2023-02-08T23:24:22.976Z,-4.10
2023-02-08T23:26:51.277Z,-4.07
2023-02-08T23:29:19.146Z,-4.12
2023-02-08T23:31:47.095Z,-4.20
2023-02-08T23:34:16.486Z,-4.21
2023-02-08T23:36:44.457Z,-4.21
2023-02-08T23:39:12.294Z,-4.27
2023-02-08T23:41:40.184Z,-4.31
2023-02-08T23:44:08.170Z,-4.31
2023-02-08T23:46:36.072Z,-4.32
2023-02-08T23:49:04.135Z,-4.39
2023-02-08T23:51:33.363Z,-4.44
2023-02-08T23:54:01.246Z,-4.43
2023-02-08T23:56:31.922Z,-4.47
2023-02-08T23:59:00.624Z,-4.46
